createdAt,value
2023-01-27T00:00:12.762Z,94.29
2023-01-27T00:02:41.083Z,93.71
2023-01-27T00:05:09.416Z,93.38
2023-01-27T00:07:36.886Z,92.93
2023-01-27T00:10:05.735Z,92.98
2023-01-27T00:13:00.655Z,92.97
2023-01-27T00:15:28.164Z,93.01
2023-01-27T00:17:55.600Z,92.02
2023-01-27T00:20:43.668Z,91.77
2023-01-27T00:23:34.060Z,92.80
2023-01-27T00:26:06.408Z,92.69
2023-01-27T00:28:36.143Z,92.58
2023-01-27T00:31:04.241Z,92.32
2023-01-27T00:33:30.713Z,92.51
2023-01-27T00:36:02.982Z,91.47
2023-01-27T00:38:32.000Z,92.16
2023-01-27T00:41:20.472Z,91.44
2023-01-27T00:43:50.740Z,91.22
2023-01-27T00:46:19.498Z,91.07
2023-01-27T00:48:47.632Z,91.71
2023-01-27T00:51:15.428Z,91.94
2023-01-27T00:53:43.257Z,92.87
2023-01-27T00:56:11.137Z,93.05
2023-01-27T00:58:38.691Z,93.13
2023-01-27T01:01:09.306Z,93.21
2023-01-27T01:03:37.471Z,92.70
2023-01-27T01:06:07.680Z,92.49
2023-01-27T01:08:36.948Z,92.74
2023-01-27T01:11:04.627Z,91.91
2023-01-27T01:13:32.366Z,91.92
2023-01-27T01:16:07.855Z,91.12
2023-01-27T01:18:35.463Z,92.47
2023-01-27T01:21:03.167Z,92.44
2023-01-27T01:23:30.581Z,92.59
2023-01-27T01:25:58.601Z,91.91
2023-01-27T01:28:26.453Z,91.64
2023-01-27T01:30:53.959Z,91.54
2023-01-27T01:33:23.105Z,91.59
2023-01-27T01:35:50.497Z,90.82
2023-01-27T01:38:17.877Z,89.53
2023-01-27T01:40:45.643Z,89.62
2023-01-27T01:43:15.616Z,90.00
2023-01-27T01:45:49.433Z,89.82
2023-01-27T01:48:21.782Z,89.92
2023-01-27T01:50:54.503Z,89.66
2023-01-27T01:53:27.225Z,89.84
2023-01-27T01:55:54.890Z,90.13
2023-01-27T01:58:22.370Z,90.36
2023-01-27T02:00:49.741Z,89.84
2023-01-27T02:03:17.396Z,89.33
2023-01-27T02:05:46.090Z,88.49
2023-01-27T02:08:18.681Z,87.79
2023-01-27T02:10:46.545Z,87.48
2023-01-27T02:13:14.013Z,87.67
2023-01-27T02:15:41.522Z,88.03
2023-01-27T02:18:09.289Z,87.62
2023-01-27T02:20:43.864Z,87.85
2023-01-27T02:23:32.795Z,88.20
2023-01-27T02:26:06.316Z,89.37
2023-01-27T02:28:33.857Z,89.86
2023-01-27T02:31:01.311Z,89.71
2023-01-27T02:33:29.404Z,89.85
2023-01-27T02:36:01.968Z,89.95
2023-01-27T02:38:35.138Z,89.67
2023-01-27T02:41:10.127Z,89.95
2023-01-27T02:43:37.521Z,89.37
2023-01-27T02:46:05.102Z,88.86
2023-01-27T02:48:32.512Z,90.21
2023-01-27T02:51:00.544Z,90.89
2023-01-27T02:53:27.950Z,91.12
2023-01-27T02:55:55.309Z,91.18
2023-01-27T02:58:24.024Z,90.88
2023-01-27T03:00:51.434Z,90.88
2023-01-27T03:03:18.837Z,91.27
2023-01-27T03:05:46.567Z,91.75
2023-01-27T03:08:13.962Z,90.81
2023-01-27T03:10:41.354Z,91.66
2023-01-27T03:13:08.725Z,91.63
2023-01-27T03:15:55.491Z,90.83
2023-01-27T03:18:22.927Z,91.98
2023-01-27T03:20:51.268Z,92.31
2023-01-27T03:23:20.564Z,92.00
2023-01-27T03:25:49.351Z,91.89
2023-01-27T03:28:17.084Z,92.19
2023-01-27T03:30:45.910Z,92.14
2023-01-27T03:33:13.333Z,92.41
2023-01-27T03:35:48.469Z,93.12
2023-01-27T03:38:34.977Z,92.77
2023-01-27T03:41:21.763Z,93.12
2023-01-27T03:44:07.199Z,93.92
2023-01-27T03:46:35.936Z,94.61
2023-01-27T03:49:03.397Z,94.70
2023-01-27T03:51:30.767Z,94.30
2023-01-27T03:54:00.862Z,93.16
2023-01-27T03:56:28.287Z,93.54
2023-01-27T03:58:55.684Z,94.36
2023-01-27T04:01:25.079Z,94.47
2023-01-27T04:04:11.743Z,94.46
2023-01-27T04:06:54.091Z,94.87
2023-01-27T04:09:23.361Z,95.26
2023-01-27T04:11:55.979Z,94.62
2023-01-27T04:14:25.597Z,94.22
2023-01-27T04:16:53.888Z,94.34
2023-01-27T04:19:22.637Z,94.95
2023-01-27T04:21:50.089Z,94.60
2023-01-27T04:24:22.453Z,95.02
2023-01-27T04:26:57.473Z,94.96
2023-01-27T04:29:26.514Z,94.57
2023-01-27T04:31:54.568Z,94.68
2023-01-27T04:34:23.301Z,94.62
2023-01-27T04:36:50.719Z,95.17
2023-01-27T04:39:18.989Z,95.15
2023-01-27T04:41:48.921Z,95.05
2023-01-27T04:44:16.921Z,94.77
2023-01-27T04:46:44.197Z,94.62
2023-01-27T04:49:11.722Z,94.78
2023-01-27T04:51:40.453Z,94.86
2023-01-27T04:54:07.961Z,95.85
2023-01-27T04:56:37.300Z,95.22
2023-01-27T04:59:06.955Z,94.99
2023-01-27T05:01:34.650Z,94.28
2023-01-27T05:04:02.269Z,95.03
2023-01-27T05:06:30.090Z,95.06
2023-01-27T05:08:58.831Z,95.19
2023-01-27T05:11:26.510Z,95.55
2023-01-27T05:13:53.932Z,95.70
2023-01-27T05:16:23.497Z,96.00
2023-01-27T05:18:53.029Z,95.77
2023-01-27T05:21:22.113Z,95.55
2023-01-27T05:23:50.319Z,95.22
2023-01-27T05:26:21.733Z,94.86
2023-01-27T05:28:50.532Z,94.69
2023-01-27T05:31:20.187Z,94.71
2023-01-27T05:33:49.687Z,94.45
2023-01-27T05:36:19.189Z,95.16
2023-01-27T05:38:47.123Z,94.73
2023-01-27T05:41:15.103Z,94.45
2023-01-27T05:43:46.610Z,94.54
2023-01-27T05:46:16.004Z,95.08
2023-01-27T05:48:45.628Z,95.43
2023-01-27T05:51:15.280Z,95.97
2023-01-27T05:53:43.126Z,96.36
2023-01-27T05:56:11.618Z,95.67
2023-01-27T05:58:39.094Z,95.75
2023-01-27T06:01:12.525Z,96.30
2023-01-27T06:03:40.724Z,96.42
2023-01-27T06:06:09.666Z,96.06
2023-01-27T06:08:38.137Z,96.06
2023-01-27T06:11:06.507Z,96.26
2023-01-27T06:13:35.756Z,96.63
2023-01-27T06:16:04.019Z,96.81
2023-01-27T06:18:32.832Z,97.19
2023-01-27T06:21:01.159Z,97.79
2023-01-27T06:23:29.007Z,97.79
2023-01-27T06:25:57.775Z,97.41
2023-01-27T06:28:29.723Z,96.40
2023-01-27T06:30:57.744Z,96.72
2023-01-27T06:33:25.161Z,96.53
2023-01-27T06:36:02.348Z,96.07
2023-01-27T06:38:29.709Z,96.04
2023-01-27T06:40:57.160Z,96.42
2023-01-27T06:43:24.596Z,97.17
2023-01-27T06:45:52.828Z,97.16
2023-01-27T06:48:20.713Z,97.07
2023-01-27T06:50:48.003Z,97.00
2023-01-27T06:53:16.805Z,97.17
2023-01-27T06:55:44.818Z,97.67
2023-01-27T06:58:13.030Z,96.65
2023-01-27T07:00:41.915Z,96.10
2023-01-27T07:03:12.211Z,95.88
2023-01-27T07:05:40.727Z,96.36
2023-01-27T07:08:08.255Z,95.60
2023-01-27T07:10:37.071Z,95.11
2023-01-27T07:13:05.840Z,95.08
2023-01-27T07:15:33.590Z,94.65
2023-01-27T07:18:01.179Z,93.96
2023-01-27T07:20:29.584Z,93.12
2023-01-27T07:22:58.012Z,91.83
2023-01-27T07:25:25.550Z,91.54
2023-01-27T07:27:54.622Z,91.92
2023-01-27T07:30:22.227Z,91.21
2023-01-27T07:32:50.455Z,90.69
2023-01-27T07:35:18.515Z,91.28
2023-01-27T07:37:45.838Z,91.12
2023-01-27T07:40:14.690Z,91.54
2023-01-27T07:42:42.635Z,91.94
2023-01-27T07:45:11.847Z,92.82
2023-01-27T07:47:39.955Z,92.70
2023-01-27T07:50:08.334Z,92.66
2023-01-27T07:52:35.690Z,92.53
2023-01-27T07:55:03.041Z,92.25
2023-01-27T07:57:30.419Z,92.85
2023-01-27T07:59:57.773Z,93.41
2023-01-27T08:02:28.277Z,93.24
2023-01-27T08:04:55.664Z,92.79
2023-01-27T08:07:23.807Z,92.66
2023-01-27T08:09:51.216Z,92.94
2023-01-27T08:12:18.559Z,92.74
2023-01-27T08:14:45.947Z,92.72
2023-01-27T08:17:13.296Z,93.46
2023-01-27T08:19:41.969Z,93.08
2023-01-27T08:22:09.352Z,93.48
2023-01-27T08:24:36.765Z,94.59
2023-01-27T08:27:06.412Z,94.80
2023-01-27T08:29:35.449Z,94.36
2023-01-27T08:32:02.811Z,94.49
2023-01-27T08:34:30.234Z,94.04
2023-01-27T08:36:58.930Z,95.28
2023-01-27T08:39:27.425Z,94.69
2023-01-27T08:41:54.826Z,93.96
2023-01-27T08:44:22.705Z,93.19
2023-01-27T08:46:50.361Z,92.71
2023-01-27T08:49:17.757Z,91.77
2023-01-27T08:51:45.132Z,91.54
2023-01-27T08:54:13.859Z,91.81
2023-01-27T08:56:41.230Z,91.10
2023-01-27T08:59:08.607Z,90.99
2023-01-27T09:01:36.047Z,90.89
2023-01-27T09:04:03.493Z,89.68
2023-01-27T09:06:31.323Z,90.15
2023-01-27T09:09:12.695Z,90.37
2023-01-27T09:11:44.711Z,90.92
2023-01-27T09:14:12.522Z,90.57
2023-01-27T09:16:39.968Z,91.07
2023-01-27T09:19:07.459Z,91.18
2023-01-27T09:21:34.859Z,90.21
2023-01-27T09:24:02.382Z,90.40
2023-01-27T09:26:29.795Z,90.11
2023-01-27T09:28:58.501Z,90.21
2023-01-27T09:31:25.984Z,90.85
2023-01-27T09:33:53.375Z,91.45
2023-01-27T09:36:22.412Z,91.83
2023-01-27T09:38:55.410Z,91.39
2023-01-27T09:41:43.837Z,90.91
2023-01-27T09:44:27.920Z,90.54
2023-01-27T09:47:14.145Z,90.89
2023-01-27T09:49:58.076Z,91.10
2023-01-27T09:52:47.925Z,90.90
2023-01-27T09:55:20.402Z,89.57
2023-01-27T09:57:57.986Z,88.28
2023-01-27T10:00:38.392Z,88.98
2023-01-27T10:03:27.138Z,89.19
2023-01-27T10:06:24.118Z,88.91
2023-01-27T10:09:11.741Z,89.08
2023-01-27T10:11:48.936Z,89.63
2023-01-27T10:14:27.972Z,90.22
2023-01-27T10:17:21.119Z,89.94
2023-01-27T10:20:02.928Z,88.97
2023-01-27T10:22:39.488Z,89.08
2023-01-27T10:25:21.867Z,91.04
2023-01-27T10:27:55.626Z,92.01
2023-01-27T10:30:30.049Z,91.75
2023-01-27T10:33:05.230Z,91.71
2023-01-27T10:35:38.128Z,91.36
2023-01-27T10:38:12.420Z,91.90
2023-01-27T10:40:49.415Z,91.74
2023-01-27T10:43:24.746Z,91.40
2023-01-27T10:45:57.559Z,91.89
2023-01-27T10:48:37.019Z,92.11
2023-01-27T10:51:10.091Z,93.14
2023-01-27T10:53:48.620Z,92.71
2023-01-27T10:56:24.680Z,92.91
2023-01-27T10:58:59.057Z,92.46
2023-01-27T11:01:33.999Z,92.97
2023-01-27T11:04:09.120Z,93.83
2023-01-27T11:06:40.440Z,95.61
2023-01-27T11:09:17.584Z,96.05
2023-01-27T11:11:46.362Z,96.36
2023-01-27T11:14:20.027Z,95.96
2023-01-27T11:16:50.475Z,96.53
2023-01-27T11:19:27.177Z,96.71
2023-01-27T11:22:07.140Z,95.82
2023-01-27T11:24:44.707Z,95.36
2023-01-27T11:27:19.304Z,95.06
2023-01-27T11:29:53.499Z,95.02
2023-01-27T11:32:31.829Z,95.09
2023-01-27T11:35:04.586Z,94.11
2023-01-27T11:37:35.412Z,94.94
2023-01-27T11:40:03.708Z,95.58
2023-01-27T11:42:34.461Z,95.58
2023-01-27T11:45:02.514Z,95.84
2023-01-27T11:47:33.409Z,95.37
2023-01-27T11:50:04.457Z,94.84
2023-01-27T11:52:32.614Z,94.53
2023-01-27T11:55:06.712Z,94.61
2023-01-27T11:57:36.861Z,94.69
2023-01-27T12:00:08.248Z,94.48
2023-01-27T12:02:39.344Z,93.58
2023-01-27T12:05:12.568Z,94.32
2023-01-27T12:07:46.669Z,95.52
2023-01-27T12:10:27.932Z,95.52
2023-01-27T12:12:55.993Z,96.31
2023-01-27T12:15:27.146Z,96.91
2023-01-27T12:17:59.520Z,95.91
2023-01-27T12:20:36.420Z,95.57
2023-01-27T12:23:15.080Z,95.32
2023-01-27T12:25:45.798Z,94.65
2023-01-27T12:28:28.075Z,93.88
2023-01-27T12:30:58.558Z,94.30
2023-01-27T12:33:30.952Z,94.55
2023-01-27T12:36:01.320Z,94.20
2023-01-27T12:38:35.309Z,93.70
2023-01-27T12:41:05.364Z,94.06
2023-01-27T12:43:33.165Z,94.28
2023-01-27T12:46:07.286Z,93.83
2023-01-27T12:48:36.286Z,94.84
2023-01-27T12:51:16.857Z,94.07
2023-01-27T12:53:44.695Z,93.72
2023-01-27T12:56:15.524Z,94.41
2023-01-27T12:58:45.041Z,93.82
2023-01-27T13:01:30.586Z,94.29
2023-01-27T13:04:01.015Z,93.75
2023-01-27T13:06:35.167Z,93.58
2023-01-27T13:09:03.818Z,93.38
2023-01-27T13:11:37.215Z,92.68
2023-01-27T13:14:08.685Z,92.29
2023-01-27T13:16:36.615Z,93.13
2023-01-27T13:19:03.978Z,93.08
2023-01-27T13:21:38.095Z,93.29
2023-01-27T13:24:14.547Z,92.74
2023-01-27T13:26:42.716Z,93.58
2023-01-27T13:29:15.412Z,93.62
2023-01-27T13:31:49.174Z,93.77
2023-01-27T13:34:25.571Z,94.19
2023-01-27T13:36:57.588Z,93.42
2023-01-27T13:39:35.833Z,93.22
2023-01-27T13:42:13.315Z,93.57
2023-01-27T13:44:46.478Z,94.29
2023-01-27T13:47:19.761Z,94.20
2023-01-27T13:49:51.484Z,94.43
2023-01-27T13:52:20.169Z,95.03
2023-01-27T13:54:47.670Z,95.88
2023-01-27T13:57:32.570Z,95.14
2023-01-27T14:00:10.602Z,94.74
2023-01-27T14:02:52.635Z,93.89
2023-01-27T14:05:32.028Z,93.80
2023-01-27T14:08:19.449Z,94.36
2023-01-27T14:11:03.257Z,94.48
2023-01-27T14:13:46.592Z,94.94
2023-01-27T14:16:19.989Z,94.35
2023-01-27T14:18:51.068Z,93.74
2023-01-27T14:21:39.770Z,93.05
2023-01-27T14:24:24.151Z,92.87
2023-01-27T14:26:56.884Z,93.82
2023-01-27T14:29:34.352Z,94.92
2023-01-27T14:32:10.335Z,94.83
2023-01-27T14:34:56.640Z,94.58
2023-01-27T14:37:31.248Z,95.49
2023-01-27T14:40:14.289Z,96.05
2023-01-27T14:42:46.205Z,96.75
2023-01-27T14:45:21.230Z,97.01
2023-01-27T14:47:58.843Z,96.78
2023-01-27T14:50:34.500Z,96.73
2023-01-27T14:53:27.192Z,96.96
2023-01-27T14:55:59.476Z,97.24
2023-01-27T14:58:43.209Z,97.74
2023-01-27T15:01:21.437Z,97.90
2023-01-27T15:04:11.250Z,98.87
2023-01-27T15:06:47.209Z,98.81
2023-01-27T15:09:27.337Z,99.34
2023-01-27T15:12:12.754Z,99.99
2023-01-27T15:15:07.352Z,100.00
2023-01-27T15:17:46.402Z,100.00
2023-01-27T15:20:41.912Z,100.00
2023-01-27T15:23:28.154Z,100.00
2023-01-27T15:25:59.844Z,100.00
2023-01-27T15:28:31.934Z,100.00
2023-01-27T15:31:24.509Z,100.00
2023-01-27T15:33:57.048Z,100.00
2023-01-27T15:36:33.271Z,100.00
2023-01-27T15:39:02.990Z,100.00
2023-01-27T15:41:30.441Z,100.00
2023-01-27T15:44:15.236Z,100.00
2023-01-27T15:46:45.051Z,100.00
2023-01-27T15:49:20.236Z,100.00
2023-01-27T15:51:50.772Z,100.00
2023-01-27T15:54:21.230Z,100.00
2023-01-27T15:56:50.952Z,100.00
2023-01-27T15:59:23.712Z,100.00
2023-01-27T16:02:02.822Z,100.00
2023-01-27T16:04:33.112Z,100.00
2023-01-27T16:07:03.905Z,100.00
2023-01-27T16:09:37.113Z,100.00
2023-01-27T16:12:27.025Z,100.00
2023-01-27T16:15:33.650Z,100.00
2023-01-27T16:18:03.628Z,100.00
2023-01-27T16:20:33.422Z,100.00
2023-01-27T16:23:04.147Z,100.00
2023-01-27T16:25:40.045Z,100.00
2023-01-27T16:28:16.900Z,100.00
2023-01-27T16:30:50.428Z,100.00
2023-01-27T16:33:23.762Z,100.00
2023-01-27T16:35:54.790Z,100.00
2023-01-27T16:38:26.898Z,100.00
2023-01-27T16:40:57.676Z,100.00
2023-01-27T16:43:31.506Z,100.00
2023-01-27T16:46:01.746Z,100.00
2023-01-27T16:48:34.967Z,100.00
2023-01-27T16:51:14.511Z,100.00
2023-01-27T16:53:46.310Z,100.00
2023-01-27T16:56:24.307Z,100.00
2023-01-27T16:58:52.822Z,100.00
2023-01-27T17:01:26.174Z,99.24
2023-01-27T17:04:04.790Z,99.00
2023-01-27T17:06:38.810Z,97.91
2023-01-27T17:09:19.617Z,95.98
2023-01-27T17:11:47.051Z,94.48
2023-01-27T17:14:29.965Z,94.91
2023-01-27T17:17:01.986Z,92.89
2023-01-27T17:19:32.176Z,92.85
2023-01-27T17:22:01.952Z,90.34
2023-01-27T17:24:31.308Z,91.77
2023-01-27T17:27:04.107Z,90.71
2023-01-27T17:29:35.996Z,90.42
2023-01-27T17:32:14.952Z,90.29
2023-01-27T17:34:42.541Z,89.84
2023-01-27T17:37:17.066Z,90.72
2023-01-27T17:39:45.673Z,91.23
2023-01-27T17:42:18.009Z,91.28
2023-01-27T17:44:45.452Z,91.11
2023-01-27T17:47:16.271Z,91.29
2023-01-27T17:49:45.417Z,91.04
2023-01-27T17:52:20.859Z,90.62
2023-01-27T17:54:49.720Z,89.35
2023-01-27T17:57:21.437Z,89.22
2023-01-27T17:59:58.987Z,89.22
2023-01-27T18:02:33.527Z,89.17
2023-01-27T18:05:05.343Z,90.08
2023-01-27T18:07:33.789Z,89.56
2023-01-27T18:10:01.178Z,90.16
2023-01-27T18:12:33.318Z,89.04
2023-01-27T18:15:33.454Z,89.46
2023-01-27T18:18:04.144Z,89.02
2023-01-27T18:20:34.305Z,88.81
2023-01-27T18:23:07.607Z,88.69
2023-01-27T18:25:35.104Z,88.88
2023-01-27T18:28:02.810Z,88.67
2023-01-27T18:30:30.222Z,88.24
2023-01-27T18:33:06.670Z,88.81
2023-01-27T18:35:34.950Z,89.33
2023-01-27T18:38:04.459Z,90.06
2023-01-27T18:40:34.004Z,90.38
2023-01-27T18:43:03.240Z,91.01
2023-01-27T18:45:30.981Z,89.26
2023-01-27T18:47:59.516Z,90.12
2023-01-27T18:50:28.382Z,89.85
2023-01-27T18:52:56.204Z,90.29
2023-01-27T18:55:25.459Z,90.85
2023-01-27T18:57:54.801Z,90.25
2023-01-27T19:00:24.722Z,89.67
2023-01-27T19:02:54.482Z,90.78
2023-01-27T19:05:23.785Z,90.02
2023-01-27T19:07:52.513Z,90.02
2023-01-27T19:10:24.791Z,90.50
2023-01-27T19:12:52.298Z,90.24
2023-01-27T19:15:23.749Z,90.67
2023-01-27T19:17:52.767Z,90.60
2023-01-27T19:20:21.962Z,90.97
2023-01-27T19:22:52.586Z,90.58
2023-01-27T19:25:20.884Z,90.53
2023-01-27T19:27:51.405Z,91.20
2023-01-27T19:30:27.331Z,91.48
2023-01-27T19:32:56.002Z,91.30
2023-01-27T19:35:24.045Z,91.87
2023-01-27T19:37:53.381Z,92.54
2023-01-27T19:40:23.730Z,91.48
2023-01-27T19:42:51.290Z,90.96
2023-01-27T19:45:20.203Z,91.58
2023-01-27T19:47:49.402Z,91.98
2023-01-27T19:50:19.876Z,91.55
2023-01-27T19:52:47.674Z,91.20
2023-01-27T19:55:16.851Z,91.29
2023-01-27T19:57:45.249Z,91.70
2023-01-27T20:00:23.050Z,92.37
2023-01-27T20:02:50.671Z,92.53
2023-01-27T20:05:18.755Z,92.32
2023-01-27T20:07:46.658Z,91.10
2023-01-27T20:10:19.182Z,91.53
2023-01-27T20:12:54.263Z,91.01
2023-01-27T20:15:24.209Z,91.22
2023-01-27T20:17:52.653Z,91.40
2023-01-27T20:20:21.470Z,91.87
2023-01-27T20:22:48.916Z,90.89
2023-01-27T20:25:19.620Z,90.74
2023-01-27T20:27:49.869Z,90.36
2023-01-27T20:30:19.447Z,90.14
2023-01-27T20:32:47.651Z,90.54
2023-01-27T20:35:17.767Z,90.00
2023-01-27T20:37:47.801Z,90.39
2023-01-27T20:40:16.842Z,90.13
2023-01-27T20:42:45.795Z,90.57
2023-01-27T20:45:13.906Z,90.41
2023-01-27T20:47:42.125Z,90.66
2023-01-27T20:50:10.437Z,89.46
2023-01-27T20:52:38.545Z,89.79
2023-01-27T20:55:06.902Z,90.22
2023-01-27T20:57:35.176Z,90.17
2023-01-27T21:00:04.594Z,90.04
2023-01-27T21:02:32.034Z,89.51
2023-01-27T21:04:59.679Z,89.78
2023-01-27T21:07:27.411Z,89.53
2023-01-27T21:09:55.081Z,89.96
2023-01-27T21:12:22.572Z,90.53
2023-01-27T21:14:49.957Z,90.97
2023-01-27T21:17:18.627Z,91.36
2023-01-27T21:19:45.998Z,91.30
2023-01-27T21:22:13.366Z,90.06
2023-01-27T21:24:40.766Z,89.67
2023-01-27T21:27:08.179Z,88.69
2023-01-27T21:29:36.231Z,88.93
2023-01-27T21:32:03.657Z,89.72
2023-01-27T21:34:32.765Z,89.23
2023-01-27T21:37:00.153Z,88.60
2023-01-27T21:39:27.530Z,88.48
2023-01-27T21:42:12.411Z,88.52
2023-01-27T21:44:57.202Z,89.14
2023-01-27T21:47:24.664Z,89.03
2023-01-27T21:50:02.352Z,88.75
2023-01-27T21:52:31.605Z,88.57
2023-01-27T21:54:59.065Z,89.42
2023-01-27T21:57:26.452Z,89.99
2023-01-27T21:59:53.814Z,90.11
2023-01-27T22:02:21.489Z,89.69
2023-01-27T22:04:48.894Z,89.74
2023-01-27T22:07:19.354Z,90.09
2023-01-27T22:09:46.918Z,90.32
2023-01-27T22:12:16.205Z,90.40
2023-01-27T22:14:44.120Z,90.45
2023-01-27T22:17:11.716Z,90.55
2023-01-27T22:19:39.785Z,90.02
2023-01-27T22:22:07.796Z,90.79
2023-01-27T22:24:36.462Z,91.05
2023-01-27T22:29:55.203Z,91.64
2023-01-27T22:32:22.616Z,91.94
2023-01-27T22:34:50.677Z,92.11
2023-01-27T22:37:18.109Z,92.09
2023-01-27T22:39:46.811Z,92.07
2023-01-27T22:42:14.182Z,92.53
2023-01-27T22:44:41.554Z,92.17
2023-01-27T22:47:08.914Z,92.07
2023-01-27T22:49:36.270Z,91.92
2023-01-27T22:52:03.692Z,91.80
2023-01-27T22:54:31.046Z,92.04
2023-01-27T22:57:01.151Z,92.05
2023-01-27T22:59:28.696Z,92.07
2023-01-27T23:01:56.101Z,92.53
2023-01-27T23:04:23.461Z,93.00
2023-01-27T23:06:50.881Z,93.12
2023-01-27T23:09:18.564Z,92.44
2023-01-27T23:11:45.961Z,92.99
2023-01-27T23:14:14.642Z,93.98
2023-01-27T23:16:42.049Z,94.82
2023-01-27T23:19:09.776Z,96.33
2023-01-27T23:21:37.511Z,96.60
2023-01-27T23:24:07.508Z,96.27
2023-01-27T23:26:35.106Z,97.03
2023-01-27T23:29:02.495Z,98.26
2023-01-27T23:31:31.565Z,99.05
2023-01-27T23:33:58.974Z,99.54
2023-01-27T23:36:26.993Z,99.38
2023-01-27T23:38:54.257Z,99.62
2023-01-27T23:41:21.779Z,100.00
2023-01-27T23:43:52.113Z,100.00
2023-01-27T23:46:20.062Z,100.00
2023-01-27T23:48:51.359Z,100.00
2023-01-27T23:51:19.832Z,100.00
2023-01-27T23:53:48.006Z,100.00
2023-01-27T23:56:17.795Z,100.00
2023-01-27T23:58:46.480Z,100.00
